sensor_id;sensor_type;location;lat;lon;timestamp;temperature;humidity
9107;DHT22;4589;48.690;8.952;2022-07-23T00:00:20;21.50;99.90
9107;DHT22;4589;48.690;8.952;2022-07-23T00:02:46;21.40;99.90
9107;DHT22;4589;48.690;8.952;2022-07-23T00:05:12;17.40;99.90
9107;DHT22;4589;48.690;8.952;2022-07-23T00:07:37;21.20;99.90
9107;DHT22;4589;48.690;8.952;2022-07-23T00:10:03;21.20;99.90
9107;DHT22;4589;48.690;8.952;2022-07-23T00:12:29;21.10;99.90
9107;DHT22;4589;48.690;8.952;2022-07-23T00:22:13;21.00;99.90
9107;DHT22;4589;48.690;8.952;2022-07-23T00:24:39;20.70;99.90
9107;DHT22;4589;48.690;8.952;2022-07-23T00:27:04;19.80;99.90
9107;DHT22;4589;48.690;8.952;2022-07-23T00:29:30;19.40;99.90
9107;DHT22;4589;48.690;8.952;2022-07-23T00:31:55;19.20;99.90
9107;DHT22;4589;48.690;8.952;2022-07-23T00:36:47;18.90;99.90
9107;DHT22;4589;48.690;8.952;2022-07-23T00:41:39;18.90;99.90
9107;DHT22;4589;48.690;8.952;2022-07-23T00:44:22;18.90;99.90
9107;DHT22;4589;48.690;8.952;2022-07-23T00:46:53;18.90;99.90
9107;DHT22;4589;48.690;8.952;2022-07-23T00:49:20;18.80;99.90
9107;DHT22;4589;48.690;8.952;2022-07-23T00:51:47;18.80;99.90
9107;DHT22;4589;48.690;8.952;2022-07-23T00:54:13;18.80;99.90
9107;DHT22;4589;48.690;8.952;2022-07-23T00:56:39;18.80;99.90
9107;DHT22;4589;48.690;8.952;2022-07-23T00:59:06;18.80;99.90
9107;DHT22;4589;48.690;8.952;2022-07-23T01:03:58;18.80;99.90
9107;DHT22;4589;48.690;8.952;2022-07-23T01:11:17;18.70;99.90
9107;DHT22;4589;48.690;8.952;2022-07-23T01:13:43;18.80;99.90
9107;DHT22;4589;48.690;8.952;2022-07-23T01:16:09;18.80;99.90
9107;DHT22;4589;48.690;8.952;2022-07-23T01:28:19;18.60;99.90
9107;DHT22;4589;48.690;8.952;2022-07-23T01:30:45;18.50;99.90
9107;DHT22;4589;48.690;8.952;2022-07-23T01:33:11;18.40;99.90
9107;DHT22;4589;48.690;8.952;2022-07-23T01:35:36;18.30;99.90
9107;DHT22;4589;48.690;8.952;2022-07-23T01:38:02;18.30;99.90
9107;DHT22;4589;48.690;8.952;2022-07-23T01:40:28;18.40;99.90
9107;DHT22;4589;48.690;8.952;2022-07-23T01:42:54;18.40;99.90
9107;DHT22;4589;48.690;8.952;2022-07-23T01:45:20;18.30;99.90
9107;DHT22;4589;48.690;8.952;2022-07-23T01:47:47;18.20;99.90
9107;DHT22;4589;48.690;8.952;2022-07-23T01:50:13;18.10;99.90
9107;DHT22;4589;48.690;8.952;2022-07-23T01:57:31;17.80;99.90
9107;DHT22;4589;48.690;8.952;2022-07-23T02:02:23;17.90;99.90
9107;DHT22;4589;48.690;8.952;2022-07-23T02:04:49;18.00;99.90
9107;DHT22;4589;48.690;8.952;2022-07-23T02:07:14;17.90;99.90
9107;DHT22;4589;48.690;8.952;2022-07-23T02:09:40;17.70;99.90
9107;DHT22;4589;48.690;8.952;2022-07-23T02:14:32;17.40;99.90
9107;DHT22;4589;48.690;8.952;2022-07-23T02:19:23;17.30;99.90
9107;DHT22;4589;48.690;8.952;2022-07-23T02:21:49;17.50;99.90
9107;DHT22;4589;48.690;8.952;2022-07-23T02:31:33;17.80;99.90
9107;DHT22;4589;48.690;8.952;2022-07-23T02:43:43;17.80;99.90
9107;DHT22;4589;48.690;8.952;2022-07-23T02:46:08;17.70;99.90
9107;DHT22;4589;48.690;8.952;2022-07-23T02:48:34;17.70;99.90
9107;DHT22;4589;48.690;8.952;2022-07-23T02:58:18;17.40;99.90
9107;DHT22;4589;48.690;8.952;2022-07-23T03:00:43;17.40;99.90
9107;DHT22;4589;48.690;8.952;2022-07-23T03:03:09;17.30;99.90
9107;DHT22;4589;48.690;8.952;2022-07-23T03:15:19;17.70;99.90
9107;DHT22;4589;48.690;8.952;2022-07-23T03:17:44;17.80;99.90
9107;DHT22;4589;48.690;8.952;2022-07-23T03:20:10;17.90;99.90
9107;DHT22;4589;48.690;8.952;2022-07-23T03:27:30;17.80;99.90
9107;DHT22;4589;48.690;8.952;2022-07-23T03:29:57;17.70;99.90
9107;DHT22;4589;48.690;8.952;2022-07-23T03:32:24;17.90;99.90
9107;DHT22;4589;48.690;8.952;2022-07-23T03:34:50;17.90;99.90
9107;DHT22;4589;48.690;8.952;2022-07-23T03:37:17;18.00;99.90
9107;DHT22;4589;48.690;8.952;2022-07-23T03:39:42;18.00;99.90
9107;DHT22;4589;48.690;8.952;2022-07-23T03:42:08;17.80;99.90
9107;DHT22;4589;48.690;8.952;2022-07-23T03:44:34;17.90;99.90
9107;DHT22;4589;48.690;8.952;2022-07-23T03:46:59;18.00;99.90
9107;DHT22;4589;48.690;8.952;2022-07-23T03:49:25;17.90;99.90
9107;DHT22;4589;48.690;8.952;2022-07-23T03:54:17;18.00;99.90
9107;DHT22;4589;48.690;8.952;2022-07-23T03:56:42;17.90;99.90
9107;DHT22;4589;48.690;8.952;2022-07-23T03:59:09;17.80;99.90
9107;DHT22;4589;48.690;8.952;2022-07-23T04:01:34;18.10;99.90
9107;DHT22;4589;48.690;8.952;2022-07-23T04:13:44;18.00;99.90
9107;DHT22;4589;48.690;8.952;2022-07-23T04:16:10;18.00;99.90
9107;DHT22;4589;48.690;8.952;2022-07-23T04:18:35;18.00;99.90
9107;DHT22;4589;48.690;8.952;2022-07-23T04:28:19;18.30;99.90
9107;DHT22;4589;48.690;8.952;2022-07-23T04:30:44;18.30;99.90
9107;DHT22;4589;48.690;8.952;2022-07-23T04:35:36;18.40;99.90
9107;DHT22;4589;48.690;8.952;2022-07-23T04:38:03;18.50;99.90
9107;DHT22;4589;48.690;8.952;2022-07-23T04:40:29;18.60;99.90
9107;DHT22;4589;48.690;8.952;2022-07-23T04:42:55;18.70;99.90
9107;DHT22;4589;48.690;8.952;2022-07-23T04:45:21;18.80;99.90
9107;DHT22;4589;48.690;8.952;2022-07-23T04:50:15;19.00;99.90
9107;DHT22;4589;48.690;8.952;2022-07-23T04:52:44;19.10;99.90
9107;DHT22;4589;48.690;8.952;2022-07-23T05:00:03;19.40;99.90
9107;DHT22;4589;48.690;8.952;2022-07-23T05:02:29;19.50;99.90
9107;DHT22;4589;48.690;8.952;2022-07-23T05:09:46;19.50;99.90
9107;DHT22;4589;48.690;8.952;2022-07-23T05:14:38;19.60;99.90
9107;DHT22;4589;48.690;8.952;2022-07-23T05:17:03;19.60;99.90
9107;DHT22;4589;48.690;8.952;2022-07-23T05:19:29;19.70;99.90
9107;DHT22;4589;48.690;8.952;2022-07-23T05:24:20;20.10;99.90
9107;DHT22;4589;48.690;8.952;2022-07-23T05:26:46;20.30;99.90
9107;DHT22;4589;48.690;8.952;2022-07-23T05:29:12;20.50;99.90
9107;DHT22;4589;48.690;8.952;2022-07-23T05:36:31;21.10;99.90
9107;DHT22;4589;48.690;8.952;2022-07-23T05:41:24;21.10;99.90
9107;DHT22;4589;48.690;8.952;2022-07-23T05:43:49;21.40;99.90
9107;DHT22;4589;48.690;8.952;2022-07-23T05:48:41;21.80;99.90
9107;DHT22;4589;48.690;8.952;2022-07-23T05:51:07;21.80;99.90
9107;DHT22;4589;48.690;8.952;2022-07-23T05:53:34;22.30;99.90
9107;DHT22;4589;48.690;8.952;2022-07-23T05:56:00;23.00;99.90
9107;DHT22;4589;48.690;8.952;2022-07-23T05:58:26;23.90;99.90
9107;DHT22;4589;48.690;8.952;2022-07-23T06:00:51;24.60;99.90
9107;DHT22;4589;48.690;8.952;2022-07-23T06:13:01;25.90;99.90
9107;DHT22;4589;48.690;8.952;2022-07-23T06:15:27;26.10;99.90
9107;DHT22;4589;48.690;8.952;2022-07-23T06:17:53;26.70;99.90
9107;DHT22;4589;48.690;8.952;2022-07-23T06:20:19;27.40;99.40
9107;DHT22;4589;48.690;8.952;2022-07-23T06:22:44;27.60;98.20
9107;DHT22;4589;48.690;8.952;2022-07-23T06:27:36;27.70;97.40
9107;DHT22;4589;48.690;8.952;2022-07-23T06:32:27;28.30;98.90
9107;DHT22;4589;48.690;8.952;2022-07-23T06:34:53;27.60;97.90
9107;DHT22;4589;48.690;8.952;2022-07-23T06:37:18;27.30;98.20
9107;DHT22;4589;48.690;8.952;2022-07-23T06:39:44;26.70;98.70
9107;DHT22;4589;48.690;8.952;2022-07-23T06:42:09;25.70;99.10
9107;DHT22;4589;48.690;8.952;2022-07-23T06:47:03;24.80;99.90
9107;DHT22;4589;48.690;8.952;2022-07-23T06:49:28;24.40;99.90
9107;DHT22;4589;48.690;8.952;2022-07-23T06:51:54;24.30;99.90
9107;DHT22;4589;48.690;8.952;2022-07-23T06:59:11;24.10;99.90
9107;DHT22;4589;48.690;8.952;2022-07-23T07:06:29;23.50;99.90
9107;DHT22;4589;48.690;8.952;2022-07-23T07:08:55;23.30;99.90
9107;DHT22;4589;48.690;8.952;2022-07-23T07:11:21;23.30;99.90
9107;DHT22;4589;48.690;8.952;2022-07-23T07:13:47;23.50;99.90
9107;DHT22;4589;48.690;8.952;2022-07-23T07:21:04;23.90;99.90
9107;DHT22;4589;48.690;8.952;2022-07-23T07:23:30;24.00;99.90
9107;DHT22;4589;48.690;8.952;2022-07-23T07:25:55;24.50;99.90
9107;DHT22;4589;48.690;8.952;2022-07-23T07:33:13;27.00;97.70
9107;DHT22;4589;48.690;8.952;2022-07-23T07:35:38;27.60;97.10
9107;DHT22;4589;48.690;8.952;2022-07-23T07:38:04;28.50;95.20
9107;DHT22;4589;48.690;8.952;2022-07-23T07:45:25;29.80;94.80
9107;DHT22;4589;48.690;8.952;2022-07-23T07:47:53;29.70;92.40
9107;DHT22;4589;48.690;8.952;2022-07-23T07:50:20;29.50;93.00
9107;DHT22;4589;48.690;8.952;2022-07-23T07:52:46;30.00;92.90
9107;DHT22;4589;48.690;8.952;2022-07-23T07:55:12;30.20;92.40
9107;DHT22;4589;48.690;8.952;2022-07-23T07:57:37;30.40;91.30
9107;DHT22;4589;48.690;8.952;2022-07-23T08:00:05;30.20;91.20
9107;DHT22;4589;48.690;8.952;2022-07-23T08:02:40;29.90;90.20
9107;DHT22;4589;48.690;8.952;2022-07-23T08:05:06;29.00;91.60
9107;DHT22;4589;48.690;8.952;2022-07-23T08:07:31;29.70;91.80
9107;DHT22;4589;48.690;8.952;2022-07-23T08:12:23;29.20;92.10
9107;DHT22;4589;48.690;8.952;2022-07-23T08:14:49;28.10;91.50
9107;DHT22;4589;48.690;8.952;2022-07-23T08:17:14;27.70;93.10
9107;DHT22;4589;48.690;8.952;2022-07-23T08:26:58;30.70;90.20
9107;DHT22;4589;48.690;8.952;2022-07-23T08:29:23;29.70;88.30
9107;DHT22;4589;48.690;8.952;2022-07-23T08:31:49;27.80;91.70
9107;DHT22;4589;48.690;8.952;2022-07-23T08:34:14;28.60;91.60
9107;DHT22;4589;48.690;8.952;2022-07-23T08:36:40;29.90;90.40
9107;DHT22;4589;48.690;8.952;2022-07-23T08:39:05;30.40;90.10
9107;DHT22;4589;48.690;8.952;2022-07-23T08:41:31;32.20;89.60
9107;DHT22;4589;48.690;8.952;2022-07-23T08:43:59;33.00;85.70
9107;DHT22;4589;48.690;8.952;2022-07-23T08:46:26;33.20;82.60
9107;DHT22;4589;48.690;8.952;2022-07-23T08:48:53;32.30;82.60
9107;DHT22;4589;48.690;8.952;2022-07-23T08:51:20;31.70;84.30
9107;DHT22;4589;48.690;8.952;2022-07-23T08:53:46;31.30;82.60
9107;DHT22;4589;48.690;8.952;2022-07-23T08:56:13;29.00;81.60
9107;DHT22;4589;48.690;8.952;2022-07-23T08:58:38;28.80;85.90
9107;DHT22;4589;48.690;8.952;2022-07-23T09:01:04;29.50;83.70
9107;DHT22;4589;48.690;8.952;2022-07-23T09:03:32;29.80;82.70
9107;DHT22;4589;48.690;8.952;2022-07-23T09:05:59;31.40;84.60
9107;DHT22;4589;48.690;8.952;2022-07-23T09:11:02;33.70;77.70
9107;DHT22;4589;48.690;8.952;2022-07-23T09:16:06;33.60;78.40
9107;DHT22;4589;48.690;8.952;2022-07-23T09:18:53;33.20;75.00
9107;DHT22;4589;48.690;8.952;2022-07-23T09:21:23;32.50;77.30
9107;DHT22;4589;48.690;8.952;2022-07-23T09:23:58;32.10;78.60
9107;DHT22;4589;48.690;8.952;2022-07-23T09:31:41;32.90;76.50
9107;DHT22;4589;48.690;8.952;2022-07-23T09:34:10;32.00;78.50
9107;DHT22;4589;48.690;8.952;2022-07-23T09:36:36;31.80;79.70
9107;DHT22;4589;48.690;8.952;2022-07-23T09:39:03;32.40;76.70
9107;DHT22;4589;48.690;8.952;2022-07-23T09:42:12;32.10;78.50
9107;DHT22;4589;48.690;8.952;2022-07-23T09:44:45;33.60;77.30
9107;DHT22;4589;48.690;8.952;2022-07-23T09:47:11;33.80;75.70
9107;DHT22;4589;48.690;8.952;2022-07-23T09:49:37;33.00;76.50
9107;DHT22;4589;48.690;8.952;2022-07-23T09:52:03;32.90;76.50
9107;DHT22;4589;48.690;8.952;2022-07-23T09:54:37;33.10;76.40
9107;DHT22;4589;48.690;8.952;2022-07-23T09:57:10;32.90;76.10
9107;DHT22;4589;48.690;8.952;2022-07-23T10:02:07;32.60;77.50
9107;DHT22;4589;48.690;8.952;2022-07-23T10:04:34;32.80;77.60
9107;DHT22;4589;48.690;8.952;2022-07-23T10:07:02;34.60;76.50
9107;DHT22;4589;48.690;8.952;2022-07-23T10:09:31;35.90;73.60
9107;DHT22;4589;48.690;8.952;2022-07-23T10:12:00;36.00;68.10
9107;DHT22;4589;48.690;8.952;2022-07-23T10:14:44;35.60;75.40
9107;DHT22;4589;48.690;8.952;2022-07-23T10:17:10;36.30;71.20
9107;DHT22;4589;48.690;8.952;2022-07-23T10:19:37;36.70;69.70
9107;DHT22;4589;48.690;8.952;2022-07-23T10:22:10;37.00;72.20
9107;DHT22;4589;48.690;8.952;2022-07-23T10:30:02;36.30;67.60
9107;DHT22;4589;48.690;8.952;2022-07-23T10:33:01;35.90;69.50
9107;DHT22;4589;48.690;8.952;2022-07-23T10:35:37;34.60;75.20
9107;DHT22;4589;48.690;8.952;2022-07-23T10:38:16;34.50;70.40
9107;DHT22;4589;48.690;8.952;2022-07-23T10:45:48;37.60;65.90
9107;DHT22;4589;48.690;8.952;2022-07-23T10:48:24;36.70;65.70
9107;DHT22;4589;48.690;8.952;2022-07-23T10:51:10;35.70;68.90
9107;DHT22;4589;48.690;8.952;2022-07-23T11:01:46;36.90;69.80
9107;DHT22;4589;48.690;8.952;2022-07-23T11:04:12;37.00;69.50
9107;DHT22;4589;48.690;8.952;2022-07-23T11:09:38;37.30;66.00
9107;DHT22;4589;48.690;8.952;2022-07-23T11:17:26;36.20;67.30
9107;DHT22;4589;48.690;8.952;2022-07-23T11:27:51;36.30;67.30
9107;DHT22;4589;48.690;8.952;2022-07-23T11:32:52;38.50;66.60
9107;DHT22;4589;48.690;8.952;2022-07-23T11:37:45;38.00;64.40
9107;DHT22;4589;48.690;8.952;2022-07-23T11:40:14;38.20;63.30
9107;DHT22;4589;48.690;8.952;2022-07-23T11:42:53;38.70;64.60
9107;DHT22;4589;48.690;8.952;2022-07-23T11:45:19;37.60;65.60
9107;DHT22;4589;48.690;8.952;2022-07-23T11:50:10;37.90;63.70
9107;DHT22;4589;48.690;8.952;2022-07-23T11:52:36;37.20;64.40
9107;DHT22;4589;48.690;8.952;2022-07-23T11:55:05;37.80;64.80
9107;DHT22;4589;48.690;8.952;2022-07-23T11:57:34;37.70;66.90
9107;DHT22;4589;48.690;8.952;2022-07-23T12:00:15;38.00;63.50
9107;DHT22;4589;48.690;8.952;2022-07-23T12:02:43;37.50;63.80
9107;DHT22;4589;48.690;8.952;2022-07-23T12:05:14;37.20;64.40
9107;DHT22;4589;48.690;8.952;2022-07-23T12:07:44;37.80;64.10
9107;DHT22;4589;48.690;8.952;2022-07-23T12:16:07;37.80;65.00
9107;DHT22;4589;48.690;8.952;2022-07-23T12:18:20;36.80;63.90
9107;DHT22;4589;48.690;8.952;2022-07-23T12:20:49;34.80;66.20
9107;DHT22;4589;48.690;8.952;2022-07-23T12:23:16;33.50;70.50
9107;DHT22;4589;48.690;8.952;2022-07-23T12:25:45;33.10;70.90
9107;DHT22;4589;48.690;8.952;2022-07-23T12:28:28;32.30;73.80
9107;DHT22;4589;48.690;8.952;2022-07-23T12:30:56;31.70;75.60
9107;DHT22;4589;48.690;8.952;2022-07-23T12:33:30;31.00;76.70
9107;DHT22;4589;48.690;8.952;2022-07-23T12:35:58;31.00;76.60
9107;DHT22;4589;48.690;8.952;2022-07-23T12:38:28;30.80;77.60
9107;DHT22;4589;48.690;8.952;2022-07-23T12:40:54;31.40;76.60
9107;DHT22;4589;48.690;8.952;2022-07-23T12:43:26;31.60;75.40
9107;DHT22;4589;48.690;8.952;2022-07-23T12:46:02;30.80;76.90
9107;DHT22;4589;48.690;8.952;2022-07-23T12:50:59;30.40;79.70
9107;DHT22;4589;48.690;8.952;2022-07-23T12:53:47;30.50;78.20
9107;DHT22;4589;48.690;8.952;2022-07-23T12:56:18;31.70;76.90
9107;DHT22;4589;48.690;8.952;2022-07-23T13:01:30;34.70;71.60
9107;DHT22;4589;48.690;8.952;2022-07-23T13:04:15;34.30;70.10
9107;DHT22;4589;48.690;8.952;2022-07-23T13:06:54;33.50;71.40
9107;DHT22;4589;48.690;8.952;2022-07-23T13:09:23;33.00;72.20
9107;DHT22;4589;48.690;8.952;2022-07-23T13:11:50;32.70;72.80
9107;DHT22;4589;48.690;8.952;2022-07-23T13:14:18;31.90;73.30
9107;DHT22;4589;48.690;8.952;2022-07-23T13:16:44;31.10;75.10
9107;DHT22;4589;48.690;8.952;2022-07-23T13:19:10;31.00;76.30
9107;DHT22;4589;48.690;8.952;2022-07-23T13:21:36;30.70;76.60
9107;DHT22;4589;48.690;8.952;2022-07-23T13:41:04;30.10;78.70
9107;DHT22;4589;48.690;8.952;2022-07-23T13:43:30;30.10;78.30
9107;DHT22;4589;48.690;8.952;2022-07-23T13:45:56;29.40;78.60
9107;DHT22;4589;48.690;8.952;2022-07-23T13:48:22;29.40;80.10
9107;DHT22;4589;48.690;8.952;2022-07-23T13:50:49;29.10;80.20
9107;DHT22;4589;48.690;8.952;2022-07-23T13:53:17;28.90;80.40
9107;DHT22;4589;48.690;8.952;2022-07-23T13:55:44;29.20;81.80
9107;DHT22;4589;48.690;8.952;2022-07-23T13:58:10;29.40;80.20
9107;DHT22;4589;48.690;8.952;2022-07-23T14:00:39;29.80;79.70
9107;DHT22;4589;48.690;8.952;2022-07-23T14:03:05;30.10;78.40
9107;DHT22;4589;48.690;8.952;2022-07-23T14:05:31;30.40;78.00
9107;DHT22;4589;48.690;8.952;2022-07-23T14:07:56;30.60;77.90
9107;DHT22;4589;48.690;8.952;2022-07-23T14:10:23;30.60;77.60
9107;DHT22;4589;48.690;8.952;2022-07-23T14:12:49;30.40;77.00
9107;DHT22;4589;48.690;8.952;2022-07-23T14:15:17;30.00;77.00
9107;DHT22;4589;48.690;8.952;2022-07-23T14:17:44;30.00;77.00
9107;DHT22;4589;48.690;8.952;2022-07-23T14:20:11;29.80;77.50
9107;DHT22;4589;48.690;8.952;2022-07-23T14:25:05;29.90;76.50
9107;DHT22;4589;48.690;8.952;2022-07-23T14:27:31;29.70;77.70
9107;DHT22;4589;48.690;8.952;2022-07-23T14:32:23;29.50;77.00
9107;DHT22;4589;48.690;8.952;2022-07-23T14:34:49;29.60;76.60
9107;DHT22;4589;48.690;8.952;2022-07-23T14:37:15;29.30;75.70
9107;DHT22;4589;48.690;8.952;2022-07-23T14:39:42;29.30;76.00
9107;DHT22;4589;48.690;8.952;2022-07-23T14:42:08;29.30;76.60
9107;DHT22;4589;48.690;8.952;2022-07-23T14:44:35;29.30;76.60
9107;DHT22;4589;48.690;8.952;2022-07-23T14:47:01;29.50;77.10
9107;DHT22;4589;48.690;8.952;2022-07-23T14:49:28;29.50;75.70
9107;DHT22;4589;48.690;8.952;2022-07-23T15:04:05;31.00;72.60
9107;DHT22;4589;48.690;8.952;2022-07-23T15:06:31;30.40;72.80
9107;DHT22;4589;48.690;8.952;2022-07-23T15:23:33;30.00;76.00
9107;DHT22;4589;48.690;8.952;2022-07-23T15:26:00;29.80;75.50
9107;DHT22;4589;48.690;8.952;2022-07-23T15:33:19;29.10;78.00
9107;DHT22;4589;48.690;8.952;2022-07-23T15:35:45;29.00;78.40
9107;DHT22;4589;48.690;8.952;2022-07-23T15:45:30;29.20;78.70
9107;DHT22;4589;48.690;8.952;2022-07-23T15:47:56;29.40;78.60
9107;DHT22;4589;48.690;8.952;2022-07-23T15:57:40;29.50;78.30
9107;DHT22;4589;48.690;8.952;2022-07-23T16:00:06;29.60;77.40
9107;DHT22;4589;48.690;8.952;2022-07-23T16:04:58;29.40;76.50
9107;DHT22;4589;48.690;8.952;2022-07-23T16:26:52;28.40;79.80
9107;DHT22;4589;48.690;8.952;2022-07-23T16:29:18;28.50;80.30
9107;DHT22;4589;48.690;8.952;2022-07-23T16:31:43;28.40;80.20
9107;DHT22;4589;48.690;8.952;2022-07-23T16:39:02;28.60;80.50
9107;DHT22;4589;48.690;8.952;2022-07-23T16:51:12;28.80;81.00
9107;DHT22;4589;48.690;8.952;2022-07-23T16:53:37;28.90;81.10
9107;DHT22;4589;48.690;8.952;2022-07-23T16:56:04;29.00;81.10
9107;DHT22;4589;48.690;8.952;2022-07-23T17:00:57;28.70;82.70
9107;DHT22;4589;48.690;8.952;2022-07-23T17:05:50;28.10;84.00
9107;DHT22;4589;48.690;8.952;2022-07-23T17:08:16;27.70;85.00
9107;DHT22;4589;48.690;8.952;2022-07-23T17:10:42;27.30;86.20
9107;DHT22;4589;48.690;8.952;2022-07-23T17:13:07;27.20;86.40
9107;DHT22;4589;48.690;8.952;2022-07-23T17:18:01;27.00;87.30
9107;DHT22;4589;48.690;8.952;2022-07-23T17:20:26;26.80;86.90
9107;DHT22;4589;48.690;8.952;2022-07-23T17:27:45;26.70;88.00
9107;DHT22;4589;48.690;8.952;2022-07-23T17:30:12;26.70;88.00
9107;DHT22;4589;48.690;8.952;2022-07-23T17:32:38;26.70;87.30
9107;DHT22;4589;48.690;8.952;2022-07-23T17:35:05;26.60;87.80
9107;DHT22;4589;48.690;8.952;2022-07-23T17:37:31;26.50;88.40
9107;DHT22;4589;48.690;8.952;2022-07-23T17:42:23;26.30;89.10
9107;DHT22;4589;48.690;8.952;2022-07-23T17:59:26;25.90;90.10
9107;DHT22;4589;48.690;8.952;2022-07-23T18:01:52;25.80;90.30
9107;DHT22;4589;48.690;8.952;2022-07-23T18:04:18;25.70;90.50
9107;DHT22;4589;48.690;8.952;2022-07-23T18:06:44;25.50;90.80
9107;DHT22;4589;48.690;8.952;2022-07-23T18:09:11;25.40;91.10
9107;DHT22;4589;48.690;8.952;2022-07-23T18:11:38;25.30;91.10
9107;DHT22;4589;48.690;8.952;2022-07-23T18:14:05;25.20;91.20
9107;DHT22;4589;48.690;8.952;2022-07-23T18:21:23;24.90;91.60
9107;DHT22;4589;48.690;8.952;2022-07-23T18:23:49;24.90;92.00
9107;DHT22;4589;48.690;8.952;2022-07-23T18:26:15;24.80;91.90
9107;DHT22;4589;48.690;8.952;2022-07-23T18:40:53;24.80;92.40
9107;DHT22;4589;48.690;8.952;2022-07-23T18:43:18;24.80;92.50
9107;DHT22;4589;48.690;8.952;2022-07-23T18:45:44;24.70;92.60
9107;DHT22;4589;48.690;8.952;2022-07-23T19:00:28;24.40;94.70
9107;DHT22;4589;48.690;8.952;2022-07-23T19:02:53;24.30;94.80
9107;DHT22;4589;48.690;8.952;2022-07-23T19:05:19;24.20;95.30
9107;DHT22;4589;48.690;8.952;2022-07-23T19:15:04;23.80;96.30
9107;DHT22;4589;48.690;8.952;2022-07-23T19:17:30;23.70;96.40
9107;DHT22;4589;48.690;8.952;2022-07-23T19:39:25;23.40;97.90
9107;DHT22;4589;48.690;8.952;2022-07-23T19:41:51;23.30;98.00
9107;DHT22;4589;48.690;8.952;2022-07-23T19:46:43;23.20;98.40
9107;DHT22;4589;48.690;8.952;2022-07-23T19:54:00;22.90;98.90
9107;DHT22;4589;48.690;8.952;2022-07-23T19:56:26;22.90;98.80
9107;DHT22;4589;48.690;8.952;2022-07-23T19:58:52;22.90;98.80
9107;DHT22;4589;48.690;8.952;2022-07-23T20:08:35;22.60;99.10
9107;DHT22;4589;48.690;8.952;2022-07-23T20:11:01;22.50;99.40
9107;DHT22;4589;48.690;8.952;2022-07-23T20:13:27;22.50;99.70
9107;DHT22;4589;48.690;8.952;2022-07-23T20:15:52;22.50;99.60
9107;DHT22;4589;48.690;8.952;2022-07-23T20:18:18;22.50;99.60
9107;DHT22;4589;48.690;8.952;2022-07-23T20:20:44;22.50;99.60
9107;DHT22;4589;48.690;8.952;2022-07-23T20:23:10;22.50;99.50
9107;DHT22;4589;48.690;8.952;2022-07-23T20:25:36;22.40;99.30
9107;DHT22;4589;48.690;8.952;2022-07-23T20:28:04;22.40;99.30
9107;DHT22;4589;48.690;8.952;2022-07-23T20:30:30;22.40;99.40
9107;DHT22;4589;48.690;8.952;2022-07-23T20:32:56;22.30;99.50
9107;DHT22;4589;48.690;8.952;2022-07-23T20:35:23;22.30;99.60
9107;DHT22;4589;48.690;8.952;2022-07-23T20:40:15;22.20;99.90
9107;DHT22;4589;48.690;8.952;2022-07-23T20:42:41;22.20;99.90
9107;DHT22;4589;48.690;8.952;2022-07-23T20:45:07;22.20;99.90
9107;DHT22;4589;48.690;8.952;2022-07-23T20:47:34;22.20;99.90
9107;DHT22;4589;48.690;8.952;2022-07-23T20:54:51;21.90;99.90
9107;DHT22;4589;48.690;8.952;2022-07-23T20:57:17;21.90;99.90
9107;DHT22;4589;48.690;8.952;2022-07-23T20:59:43;21.80;99.90
9107;DHT22;4589;48.690;8.952;2022-07-23T21:02:09;21.70;99.90
9107;DHT22;4589;48.690;8.952;2022-07-23T21:16:45;21.70;99.90
9107;DHT22;4589;48.690;8.952;2022-07-23T21:19:10;21.70;99.90
9107;DHT22;4589;48.690;8.952;2022-07-23T21:21:36;21.60;99.90
9107;DHT22;4589;48.690;8.952;2022-07-23T21:24:03;21.60;99.90
9107;DHT22;4589;48.690;8.952;2022-07-23T21:28:55;21.60;99.90
9107;DHT22;4589;48.690;8.952;2022-07-23T21:31:20;21.60;99.90
9107;DHT22;4589;48.690;8.952;2022-07-23T21:36:13;21.70;99.90
9107;DHT22;4589;48.690;8.952;2022-07-23T21:45:58;21.40;99.90
9107;DHT22;4589;48.690;8.952;2022-07-23T21:50:50;21.30;99.90
9107;DHT22;4589;48.690;8.952;2022-07-23T21:53:17;21.30;99.90
9107;DHT22;4589;48.690;8.952;2022-07-23T21:58:08;21.30;99.90
9107;DHT22;4589;48.690;8.952;2022-07-23T22:00:35;21.20;99.90
9107;DHT22;4589;48.690;8.952;2022-07-23T22:03:02;21.30;99.90
9107;DHT22;4589;48.690;8.952;2022-07-23T22:07:55;21.30;99.90
9107;DHT22;4589;48.690;8.952;2022-07-23T22:10:21;21.30;99.90
9107;DHT22;4589;48.690;8.952;2022-07-23T22:12:46;21.30;99.90
9107;DHT22;4589;48.690;8.952;2022-07-23T22:15:14;21.20;99.90
9107;DHT22;4589;48.690;8.952;2022-07-23T22:17:44;21.20;99.90
9107;DHT22;4589;48.690;8.952;2022-07-23T22:20:11;21.10;99.90
9107;DHT22;4589;48.690;8.952;2022-07-23T22:22:43;21.10;99.90
9107;DHT22;4589;48.690;8.952;2022-07-23T22:27:36;21.00;99.90
9107;DHT22;4589;48.690;8.952;2022-07-23T22:30:05;20.90;99.90
9107;DHT22;4589;48.690;8.952;2022-07-23T22:32:31;20.90;99.90
9107;DHT22;4589;48.690;8.952;2022-07-23T22:39:49;20.60;99.90
9107;DHT22;4589;48.690;8.952;2022-07-23T22:42:14;20.60;99.90
9107;DHT22;4589;48.690;8.952;2022-07-23T22:44:40;20.40;99.90
9107;DHT22;4589;48.690;8.952;2022-07-23T22:49:31;20.30;99.90
9107;DHT22;4589;48.690;8.952;2022-07-23T22:51:57;20.30;99.90
9107;DHT22;4589;48.690;8.952;2022-07-23T22:54:22;20.20;99.90
9107;DHT22;4589;48.690;8.952;2022-07-23T23:01:40;19.70;99.90
9107;DHT22;4589;48.690;8.952;2022-07-23T23:04:05;19.60;99.90
9107;DHT22;4589;48.690;8.952;2022-07-23T23:06:31;19.60;99.90
9107;DHT22;4589;48.690;8.952;2022-07-23T23:08:57;19.60;99.90
9107;DHT22;4589;48.690;8.952;2022-07-23T23:16:14;19.30;99.90
9107;DHT22;4589;48.690;8.952;2022-07-23T23:18:40;19.30;99.90
9107;DHT22;4589;48.690;8.952;2022-07-23T23:30:49;18.60;99.90
9107;DHT22;4589;48.690;8.952;2022-07-23T23:33:15;18.50;99.90
9107;DHT22;4589;48.690;8.952;2022-07-23T23:35:40;18.50;99.90
9107;DHT22;4589;48.690;8.952;2022-07-23T23:40:32;18.40;99.90
9107;DHT22;4589;48.690;8.952;2022-07-23T23:42:57;18.30;99.90
9107;DHT22;4589;48.690;8.952;2022-07-23T23:45:23;18.40;99.90
9107;DHT22;4589;48.690;8.952;2022-07-23T23:52:40;18.30;99.90
9107;DHT22;4589;48.690;8.952;2022-07-23T23:55:06;18.30;99.90
9107;DHT22;4589;48.690;8.952;2022-07-23T23:57:32;18.30;99.90
9107;DHT22;4589;48.690;8.952;2022-07-23T23:59:58;18.30;99.90
